createdAt,value
2022-11-28T00:01:43.068Z,12.35
2022-11-28T00:04:12.688Z,10.95
2022-11-28T00:06:45.421Z,10.68
2022-11-28T00:09:15.746Z,11.63
2022-11-28T00:11:45.560Z,11.35
2022-11-28T00:14:14.617Z,10.38
2022-11-28T00:16:44.611Z,10.70
2022-11-28T00:19:13.797Z,8.65
2022-11-28T00:21:42.812Z,8.90
2022-11-28T00:24:11.115Z,8.25
2022-11-28T00:26:42.054Z,8.07
2022-11-28T00:29:11.940Z,6.30
2022-11-28T00:31:44.021Z,7.50
2022-11-28T00:34:15.230Z,7.68
2022-11-28T00:36:45.352Z,7.05
2022-11-28T00:39:13.984Z,6.85
2022-11-28T00:41:42.648Z,7.03
2022-11-28T00:44:11.074Z,6.50
2022-11-28T00:46:39.287Z,7.57
2022-11-28T00:49:07.473Z,7.50
2022-11-28T00:51:37.186Z,8.07
2022-11-28T00:54:07.328Z,8.63
2022-11-28T00:56:38.348Z,7.20
2022-11-28T00:59:07.312Z,7.50
2022-11-28T01:01:38.055Z,9.25
2022-11-28T01:04:09.189Z,7.63
2022-11-28T01:06:40.886Z,9.98
2022-11-28T01:09:12.158Z,9.43
2022-11-28T01:11:42.259Z,10.27
2022-11-28T01:14:12.149Z,9.38
2022-11-28T01:16:40.915Z,9.25
2022-11-28T01:19:09.511Z,10.57
2022-11-28T01:21:39.063Z,10.15
2022-11-28T01:24:08.059Z,9.20
2022-11-28T01:26:36.671Z,10.55
2022-11-28T01:29:04.839Z,11.05
2022-11-28T01:31:33.299Z,9.52
2022-11-28T01:34:01.545Z,10.52
2022-11-28T01:36:30.371Z,10.32
2022-11-28T01:38:59.887Z,10.52
2022-11-28T01:41:29.274Z,9.50
2022-11-28T01:44:07.508Z,10.90
2022-11-28T01:46:37.086Z,10.15
2022-11-28T01:49:12.847Z,10.43
2022-11-28T01:51:45.397Z,9.88
2022-11-28T01:54:16.258Z,11.32
2022-11-28T01:56:51.278Z,10.23
2022-11-28T01:59:21.656Z,10.45
2022-11-28T02:01:49.876Z,11.57
2022-11-28T02:04:18.109Z,11.05
2022-11-28T02:06:46.342Z,10.77
2022-11-28T02:09:17.750Z,10.82
2022-11-28T02:12:12.507Z,11.10
2022-11-28T02:15:04.070Z,11.75
2022-11-28T02:17:45.191Z,11.07
2022-11-28T02:20:34.165Z,11.15
2022-11-28T02:23:08.095Z,10.63
2022-11-28T02:26:05.224Z,11.35
2022-11-28T02:29:07.612Z,10.77
2022-11-28T02:32:08.728Z,10.70
2022-11-28T02:34:47.137Z,11.18
2022-11-28T02:37:23.897Z,11.13
2022-11-28T02:40:00.690Z,11.40
2022-11-28T02:42:38.112Z,13.35
2022-11-28T02:45:11.646Z,12.43
2022-11-28T02:47:44.717Z,11.80
2022-11-28T02:50:19.214Z,11.30
2022-11-28T02:52:51.506Z,11.50
2022-11-28T02:55:20.236Z,10.73
2022-11-28T02:57:49.953Z,11.43
2022-11-28T03:00:30.170Z,10.10
2022-11-28T03:03:11.955Z,10.45
2022-11-28T03:05:47.245Z,12.88
2022-11-28T03:08:31.746Z,11.20
2022-11-28T03:11:05.809Z,10.50
2022-11-28T03:13:41.359Z,11.00
2022-11-28T03:16:20.222Z,9.32
2022-11-28T03:19:00.523Z,10.82
2022-11-28T03:21:40.225Z,10.23
2022-11-28T03:24:16.267Z,9.95
2022-11-28T03:26:54.163Z,9.98
2022-11-28T03:29:26.645Z,9.65
2022-11-28T03:31:58.426Z,8.85
2022-11-28T03:34:33.391Z,8.95
2022-11-28T03:37:07.274Z,7.80
2022-11-28T03:39:40.101Z,7.60
2022-11-28T03:42:12.216Z,7.22
2022-11-28T03:44:47.146Z,7.47
2022-11-28T03:47:15.334Z,7.75
2022-11-28T03:49:48.839Z,8.02
2022-11-28T03:52:26.587Z,6.65
2022-11-28T03:54:58.248Z,6.55
2022-11-28T03:57:33.345Z,6.85
2022-11-28T04:00:04.410Z,6.03
2022-11-28T04:02:47.779Z,5.70
2022-11-28T04:05:22.410Z,6.90
2022-11-28T04:07:57.336Z,6.55
2022-11-28T04:10:31.086Z,6.57
2022-11-28T04:13:06.811Z,6.68
2022-11-28T04:15:42.816Z,7.00
2022-11-28T04:18:21.805Z,6.07
2022-11-28T04:20:54.776Z,5.50
2022-11-28T04:23:27.862Z,6.65
2022-11-28T04:26:02.892Z,6.30
2022-11-28T04:28:34.305Z,6.15
2022-11-28T04:31:05.633Z,5.75
2022-11-28T04:33:39.562Z,5.20
2022-11-28T04:36:10.001Z,4.45
2022-11-28T04:38:41.935Z,5.60
2022-11-28T04:41:15.120Z,5.07
2022-11-28T04:43:58.886Z,5.45
2022-11-28T04:46:33.395Z,4.75
2022-11-28T04:49:02.033Z,4.82
2022-11-28T04:51:38.810Z,5.25
2022-11-28T04:54:12.996Z,5.30
2022-11-28T04:56:45.766Z,4.90
2022-11-28T04:59:16.020Z,5.20
2022-11-28T05:01:47.362Z,9.70
2022-11-28T05:04:17.256Z,10.70
2022-11-28T05:06:46.177Z,8.63
2022-11-28T05:09:15.666Z,8.25
2022-11-28T05:11:43.854Z,7.60
2022-11-28T05:14:12.115Z,9.30
2022-11-28T05:16:40.465Z,4.88
2022-11-28T05:19:08.776Z,6.03
2022-11-28T05:21:36.999Z,4.85
2022-11-28T05:24:05.866Z,7.05
2022-11-28T05:26:35.855Z,6.75
2022-11-28T05:29:04.214Z,7.22
2022-11-28T05:31:32.566Z,8.45
2022-11-28T05:34:00.965Z,6.95
2022-11-28T05:36:29.403Z,6.30
2022-11-28T05:38:57.957Z,6.05
2022-11-28T05:41:27.879Z,6.47
2022-11-28T05:43:58.034Z,5.05
2022-11-28T05:46:26.906Z,6.60
2022-11-28T05:48:55.054Z,6.90
2022-11-28T05:51:23.395Z,6.38
2022-11-28T05:53:51.881Z,6.38
2022-11-28T05:56:23.172Z,7.25
2022-11-28T05:58:52.959Z,5.85
2022-11-28T06:01:24.001Z,8.25
2022-11-28T06:03:58.166Z,9.95
2022-11-28T06:06:29.079Z,9.27
2022-11-28T06:08:58.430Z,8.45
2022-11-28T06:11:28.319Z,6.43
2022-11-28T06:13:56.474Z,8.75
2022-11-28T06:16:27.686Z,9.32
2022-11-28T06:18:56.464Z,10.35
2022-11-28T06:21:25.612Z,10.05
2022-11-28T06:23:53.750Z,9.07
2022-11-28T06:26:24.486Z,9.25
2022-11-28T06:28:52.921Z,10.20
2022-11-28T06:31:23.170Z,10.43
2022-11-28T06:33:52.932Z,9.73
2022-11-28T06:36:21.783Z,10.60
2022-11-28T06:38:50.382Z,9.02
2022-11-28T06:41:21.342Z,9.70
2022-11-28T06:43:50.029Z,10.10
2022-11-28T06:46:20.960Z,9.50
2022-11-28T06:48:50.951Z,9.80
2022-11-28T06:51:21.359Z,9.55
2022-11-28T06:53:49.891Z,8.80
2022-11-28T06:56:20.113Z,8.60
2022-11-28T06:58:49.399Z,8.50
2022-11-28T07:01:21.441Z,9.27
2022-11-28T07:03:50.535Z,10.00
2022-11-28T07:06:20.640Z,10.32
2022-11-28T07:08:49.177Z,10.20
2022-11-28T07:11:19.199Z,12.57
2022-11-28T07:13:48.432Z,11.27
2022-11-28T07:16:18.426Z,13.30
2022-11-28T07:18:46.852Z,11.32
2022-11-28T07:21:16.088Z,11.82
2022-11-28T07:23:46.300Z,10.23
2022-11-28T07:26:16.798Z,11.20
2022-11-28T07:28:45.881Z,10.85
2022-11-28T07:31:17.274Z,12.00
2022-11-28T07:33:49.315Z,10.00
2022-11-28T07:36:20.047Z,9.55
2022-11-28T07:38:50.096Z,11.43
2022-11-28T07:41:23.615Z,10.68
2022-11-28T07:43:56.243Z,9.88
2022-11-28T07:46:25.057Z,9.82
2022-11-28T07:48:53.647Z,9.60
2022-11-28T07:51:24.216Z,9.23
2022-11-28T07:53:54.133Z,9.27
2022-11-28T07:56:24.857Z,9.18
2022-11-28T07:58:53.326Z,8.52
2022-11-28T08:01:23.633Z,8.93
2022-11-28T08:03:52.913Z,7.90
2022-11-28T08:06:22.828Z,9.43
2022-11-28T08:08:54.827Z,11.70
2022-11-28T08:11:25.031Z,10.43
2022-11-28T08:13:56.416Z,10.57
2022-11-28T08:16:28.078Z,10.40
2022-11-28T08:18:57.218Z,8.85
2022-11-28T08:21:27.242Z,9.75
2022-11-28T08:23:59.732Z,9.25
2022-11-28T08:26:30.859Z,8.90
2022-11-28T08:28:59.633Z,8.85
2022-11-28T08:31:29.975Z,7.70
2022-11-28T08:34:00.680Z,8.55
2022-11-28T08:36:29.545Z,8.02
2022-11-28T08:41:49.896Z,10.43
2022-11-28T08:44:18.240Z,10.48
2022-11-28T08:46:46.398Z,10.00
2022-11-28T08:49:14.560Z,9.77
2022-11-28T08:51:42.941Z,9.85
2022-11-28T08:54:12.721Z,9.70
2022-11-28T08:56:40.838Z,10.07
2022-11-28T08:59:09.023Z,9.35
2022-11-28T09:01:37.310Z,10.60
2022-11-28T09:04:06.076Z,8.13
2022-11-28T09:06:34.360Z,8.40
2022-11-28T09:09:03.043Z,10.80
2022-11-28T09:11:32.666Z,10.20
2022-11-28T09:14:01.346Z,11.45
2022-11-28T09:16:29.603Z,9.32
2022-11-28T09:18:59.335Z,9.35
2022-11-28T09:21:27.921Z,11.10
2022-11-28T09:23:57.457Z,10.32
2022-11-28T09:26:26.289Z,8.10
2022-11-28T09:28:55.941Z,8.68
2022-11-28T09:31:24.424Z,9.07
2022-11-28T09:33:52.730Z,8.73
2022-11-28T09:36:23.311Z,7.05
2022-11-28T09:38:52.384Z,7.13
2022-11-28T09:41:33.146Z,7.43
2022-11-28T09:44:08.834Z,7.20
2022-11-28T09:46:39.474Z,8.43
2022-11-28T09:49:26.757Z,8.05
2022-11-28T09:51:59.673Z,8.23
2022-11-28T09:54:38.471Z,8.13
2022-11-28T09:57:17.619Z,7.95
2022-11-28T09:59:47.519Z,7.97
2022-11-28T10:02:26.205Z,9.15
2022-11-28T10:05:06.407Z,8.90
2022-11-28T10:07:50.999Z,8.20
2022-11-28T10:10:32.690Z,9.15
2022-11-28T10:13:10.047Z,8.75
2022-11-28T10:15:50.115Z,9.07
2022-11-28T10:18:34.800Z,7.88
2022-11-28T10:21:06.299Z,8.18
2022-11-28T10:23:39.992Z,8.02
2022-11-28T10:26:14.207Z,7.88
2022-11-28T10:28:45.365Z,9.55
2022-11-28T10:31:20.802Z,7.18
2022-11-28T10:33:53.586Z,7.55
2022-11-28T10:36:25.702Z,7.20
2022-11-28T10:38:53.936Z,7.00
2022-11-28T10:41:29.299Z,6.70
2022-11-28T10:44:04.035Z,7.05
2022-11-28T10:46:55.113Z,7.60
2022-11-28T10:49:33.965Z,6.28
2022-11-28T10:52:10.328Z,5.85
2022-11-28T10:55:08.050Z,6.80
2022-11-28T10:57:43.669Z,7.65
2022-11-28T11:00:14.504Z,7.22
2022-11-28T11:02:47.334Z,6.22
2022-11-28T11:05:17.895Z,6.07
2022-11-28T11:07:51.406Z,5.85
2022-11-28T11:10:24.478Z,4.80
2022-11-28T11:12:53.689Z,4.80
2022-11-28T11:15:25.953Z,5.65
2022-11-28T11:17:55.462Z,4.82
2022-11-28T11:20:30.687Z,4.60
2022-11-28T11:23:00.970Z,5.40
2022-11-28T11:25:31.080Z,4.15
2022-11-28T11:28:01.911Z,4.57
2022-11-28T11:30:31.950Z,4.65
2022-11-28T11:33:03.276Z,5.40
2022-11-28T11:35:35.897Z,5.72
2022-11-28T11:38:18.428Z,5.85
2022-11-28T11:40:46.767Z,5.45
2022-11-28T11:43:27.672Z,5.05
2022-11-28T11:46:09.934Z,4.20
2022-11-28T11:48:42.239Z,5.57
2022-11-28T11:51:23.812Z,4.32
2022-11-28T11:54:05.680Z,4.18
2022-11-28T11:56:38.895Z,4.60
2022-11-28T11:59:15.057Z,4.65
2022-11-28T12:01:45.343Z,4.25
2022-11-28T12:04:49.049Z,4.13
2022-11-28T12:07:22.195Z,3.80
2022-11-28T12:09:54.703Z,4.80
2022-11-28T12:12:26.070Z,5.25
2022-11-28T12:14:54.204Z,4.95
2022-11-28T12:20:47.329Z,3.97
2022-11-28T12:23:29.661Z,3.80
2022-11-28T12:26:07.022Z,3.45
2022-11-28T12:28:48.758Z,3.65
2022-11-28T12:31:29.126Z,3.83
2022-11-28T12:34:08.674Z,3.70
2022-11-28T12:36:45.495Z,3.55
2022-11-28T12:39:19.125Z,3.05
2022-11-28T12:42:19.751Z,3.50
2022-11-28T12:45:01.797Z,4.65
2022-11-28T12:47:41.888Z,4.63
2022-11-28T12:50:21.761Z,3.80
2022-11-28T12:53:00.962Z,3.13
2022-11-28T12:55:35.983Z,3.97
2022-11-28T12:58:10.990Z,2.95
2022-11-28T13:00:49.794Z,4.82
2022-11-28T13:03:35.487Z,5.38
2022-11-28T13:06:17.409Z,3.20
2022-11-28T13:09:04.160Z,3.42
2022-11-28T13:11:46.022Z,4.10
2022-11-28T13:14:28.437Z,3.70
2022-11-28T13:17:01.886Z,3.95
2022-11-28T13:19:37.831Z,4.22
2022-11-28T13:22:14.924Z,3.92
2022-11-28T13:24:52.047Z,4.35
2022-11-28T13:27:33.265Z,4.70
2022-11-28T13:30:14.483Z,4.68
2022-11-28T13:32:48.102Z,4.05
2022-11-28T13:35:18.577Z,7.78
2022-11-28T13:40:49.224Z,5.28
2022-11-28T13:43:26.527Z,5.75
2022-11-28T13:45:55.523Z,4.90
2022-11-28T13:51:41.955Z,5.05
2022-11-28T13:54:42.953Z,4.65
2022-11-28T13:57:28.791Z,4.93
2022-11-28T14:00:03.787Z,5.20
2022-11-28T14:02:46.024Z,6.18
2022-11-28T14:05:31.971Z,3.85
2022-11-28T14:08:00.545Z,5.47
2022-11-28T14:10:40.701Z,4.72
2022-11-28T14:13:59.605Z,5.20
2022-11-28T14:16:45.498Z,4.43
2022-11-28T14:19:28.482Z,4.60
2022-11-28T14:22:11.071Z,4.45
2022-11-28T14:24:56.346Z,5.07
2022-11-28T14:27:28.835Z,5.88
2022-11-28T14:29:59.649Z,6.32
2022-11-28T14:32:37.667Z,5.53
2022-11-28T14:35:13.126Z,5.30
2022-11-28T14:37:53.726Z,6.10
2022-11-28T14:41:04.574Z,5.25
2022-11-28T14:43:34.198Z,5.55
2022-11-28T14:46:30.568Z,5.68
2022-11-28T14:49:24.024Z,5.90
2022-11-28T14:52:38.388Z,5.30
2022-11-28T14:55:18.806Z,4.90
2022-11-28T14:57:57.102Z,6.20
2022-11-28T15:00:26.993Z,6.25
2022-11-28T15:03:16.849Z,7.10
2022-11-28T15:05:47.259Z,5.05
2022-11-28T15:08:28.834Z,5.82
2022-11-28T15:11:11.547Z,6.93
2022-11-28T15:13:54.040Z,6.20
2022-11-28T15:16:24.107Z,6.60
2022-11-28T15:18:59.525Z,6.38
2022-11-28T15:21:29.327Z,6.55
2022-11-28T15:23:57.502Z,7.28
2022-11-28T15:26:29.348Z,7.40
2022-11-28T15:29:19.484Z,7.28
2022-11-28T15:31:50.542Z,6.15
2022-11-28T15:34:27.048Z,7.35
2022-11-28T15:36:57.155Z,6.68
2022-11-28T15:39:29.914Z,6.75
2022-11-28T15:42:00.515Z,6.57
2022-11-28T15:44:30.127Z,6.40
2022-11-28T15:46:59.689Z,7.35
2022-11-28T15:49:34.195Z,7.25
2022-11-28T15:52:03.750Z,7.28
2022-11-28T15:54:35.490Z,6.70
2022-11-28T15:57:04.771Z,7.25
2022-11-28T15:59:33.317Z,7.35
2022-11-28T16:02:05.737Z,8.57
2022-11-28T16:04:35.578Z,6.57
2022-11-28T16:07:03.986Z,6.72
2022-11-28T16:09:35.344Z,8.32
2022-11-28T16:12:06.730Z,5.88
2022-11-28T16:14:38.637Z,5.90
2022-11-28T16:17:14.473Z,6.93
2022-11-28T16:19:45.450Z,5.93
2022-11-28T16:22:20.211Z,6.13
2022-11-28T16:24:50.301Z,6.20
2022-11-28T16:27:30.263Z,6.75
2022-11-28T16:29:58.540Z,8.00
2022-11-28T16:32:37.972Z,6.88
2022-11-28T16:35:13.525Z,6.43
2022-11-28T16:37:41.752Z,6.50
2022-11-28T16:40:17.164Z,7.40
2022-11-28T16:42:53.691Z,6.43
2022-11-28T16:45:26.482Z,6.22
2022-11-28T16:48:01.389Z,6.40
2022-11-28T16:50:31.056Z,6.47
2022-11-28T16:53:00.026Z,7.05
2022-11-28T16:55:47.826Z,5.75
2022-11-28T16:58:21.508Z,5.15
2022-11-28T17:01:02.294Z,5.82
2022-11-28T17:03:50.546Z,6.13
2022-11-28T17:06:33.844Z,6.70
2022-11-28T17:09:02.235Z,6.35
2022-11-28T17:11:34.249Z,6.07
2022-11-28T17:14:06.246Z,6.13
2022-11-28T17:16:38.392Z,8.02
2022-11-28T17:19:06.703Z,8.95
2022-11-28T17:21:40.311Z,9.63
2022-11-28T17:24:17.081Z,11.15
2022-11-28T17:26:45.509Z,9.90
2022-11-28T17:29:15.930Z,9.90
2022-11-28T17:31:46.933Z,10.55
2022-11-28T17:34:17.327Z,10.32
2022-11-28T17:36:47.728Z,11.02
2022-11-28T17:39:17.597Z,11.18
2022-11-28T17:41:46.917Z,9.27
2022-11-28T17:44:18.470Z,8.60
2022-11-28T17:46:46.779Z,9.35
2022-11-28T17:49:15.334Z,9.85
2022-11-28T17:51:44.725Z,10.50
2022-11-28T17:54:16.719Z,9.63
2022-11-28T17:56:45.999Z,9.07
2022-11-28T17:59:15.347Z,9.43
2022-11-28T18:01:44.883Z,9.82
2022-11-28T18:04:13.496Z,10.45
2022-11-28T18:06:43.985Z,10.20
2022-11-28T18:09:15.416Z,10.15
2022-11-28T18:11:46.363Z,10.80
2022-11-28T18:14:19.245Z,11.45
2022-11-28T18:16:48.096Z,11.18
2022-11-28T18:19:16.349Z,11.55
2022-11-28T18:21:45.227Z,12.40
2022-11-28T18:24:15.283Z,11.52
2022-11-28T18:26:43.806Z,15.10
2022-11-28T18:29:12.020Z,15.52
2022-11-28T18:31:40.245Z,15.05
2022-11-28T18:34:09.955Z,16.67
2022-11-28T18:36:39.847Z,14.35
2022-11-28T18:39:15.563Z,15.13
2022-11-28T18:41:44.089Z,13.90
2022-11-28T18:44:12.347Z,11.50
2022-11-28T18:46:40.565Z,10.98
2022-11-28T18:49:12.174Z,9.30
2022-11-28T18:51:40.343Z,8.20
2022-11-28T18:54:10.761Z,7.75
2022-11-28T18:56:40.361Z,7.65
2022-11-28T18:59:08.649Z,8.80
2022-11-28T19:01:41.555Z,7.30
2022-11-28T19:04:13.661Z,7.32
2022-11-28T19:06:43.856Z,6.15
2022-11-28T19:09:14.004Z,4.68
2022-11-28T19:11:44.388Z,4.97
2022-11-28T19:14:16.345Z,4.75
2022-11-28T19:16:47.110Z,5.90
2022-11-28T19:19:18.839Z,5.18
2022-11-28T19:21:49.665Z,5.50
2022-11-28T19:24:18.800Z,5.65
2022-11-28T19:26:48.520Z,5.65
2022-11-28T19:29:16.801Z,5.60
2022-11-28T19:31:45.075Z,4.97
2022-11-28T19:34:15.198Z,4.88
2022-11-28T19:36:46.968Z,4.13
2022-11-28T19:39:18.009Z,3.70
2022-11-28T19:41:46.496Z,3.10
2022-11-28T19:44:16.590Z,3.25
2022-11-28T19:46:44.892Z,3.50
2022-11-28T19:49:18.501Z,3.50
2022-11-28T19:51:47.950Z,3.15
2022-11-28T19:54:16.800Z,3.40
2022-11-28T19:56:45.264Z,2.80
2022-11-28T19:59:15.391Z,3.83
2022-11-28T20:01:45.503Z,5.80
2022-11-28T20:04:14.654Z,4.05
2022-11-28T20:06:42.860Z,4.55
2022-11-28T20:09:13.822Z,4.53
2022-11-28T20:11:45.752Z,3.95
2022-11-28T20:14:17.922Z,3.70
2022-11-28T20:16:46.623Z,4.20
2022-11-28T20:19:17.785Z,3.40
2022-11-28T20:21:47.153Z,3.10
2022-11-28T20:24:16.355Z,10.82
2022-11-28T20:26:46.778Z,9.45
2022-11-28T20:29:18.603Z,3.58
2022-11-28T20:31:49.207Z,2.70
2022-11-28T20:34:19.498Z,2.65
2022-11-28T20:36:52.628Z,2.60
2022-11-28T20:39:21.394Z,2.65
2022-11-28T20:41:49.561Z,2.88
2022-11-28T20:44:19.403Z,1.73
2022-11-28T20:46:49.849Z,2.53
2022-11-28T20:49:18.540Z,2.13
2022-11-28T20:51:47.436Z,2.22
2022-11-28T20:54:15.838Z,2.40
2022-11-28T20:57:19.679Z,2.47
2022-11-28T20:59:34.862Z,2.22
2022-11-28T21:02:03.121Z,2.53
2022-11-28T21:04:31.465Z,2.05
2022-11-28T21:06:59.670Z,2.55
2022-11-28T21:09:28.010Z,2.72
2022-11-28T21:11:58.634Z,3.20
2022-11-28T21:14:28.432Z,4.00
2022-11-28T21:16:59.526Z,3.20
2022-11-28T21:19:27.798Z,2.63
2022-11-28T21:21:55.938Z,2.50
2022-11-28T21:24:24.081Z,2.60
2022-11-28T21:26:54.492Z,2.60
2022-11-28T21:29:24.866Z,2.75
2022-11-28T21:31:54.064Z,2.90
2022-11-28T21:34:23.755Z,2.97
2022-11-28T21:36:52.011Z,3.03
2022-11-28T21:39:22.076Z,3.55
2022-11-28T21:41:52.062Z,3.80
2022-11-28T21:44:20.673Z,5.30
2022-11-28T21:46:50.143Z,4.40
2022-11-28T21:49:18.784Z,4.75
2022-11-28T21:51:48.354Z,6.18
2022-11-28T21:54:16.967Z,6.80
2022-11-28T21:56:46.520Z,7.40
2022-11-28T21:59:14.716Z,8.52
2022-11-28T22:01:43.661Z,8.93
2022-11-28T22:04:12.179Z,11.48
2022-11-28T22:06:41.108Z,11.85
2022-11-28T22:09:11.346Z,12.45
2022-11-28T22:11:41.247Z,11.40
2022-11-28T22:14:11.988Z,10.65
2022-11-28T22:16:40.731Z,10.57
2022-11-28T22:19:10.322Z,8.40
2022-11-28T22:21:55.418Z,6.70
2022-11-28T22:24:26.268Z,7.15
2022-11-28T22:26:56.132Z,7.32
2022-11-28T22:29:25.264Z,7.57
2022-11-28T22:31:54.899Z,6.32
2022-11-28T22:34:24.277Z,8.18
2022-11-28T22:36:52.563Z,6.97
2022-11-28T22:39:21.791Z,8.10
2022-11-28T22:41:51.671Z,7.82
2022-11-28T22:44:21.106Z,7.22
2022-11-28T22:46:49.269Z,7.30
2022-11-28T22:49:17.782Z,7.25
2022-11-28T22:51:46.474Z,7.85
2022-11-28T22:54:15.046Z,7.95
2022-11-28T22:56:43.631Z,7.28
2022-11-28T22:59:15.119Z,7.50
2022-11-28T23:01:44.370Z,8.68
2022-11-28T23:04:13.593Z,8.45
2022-11-28T23:06:43.830Z,7.82
2022-11-28T23:09:14.683Z,8.32
2022-11-28T23:11:43.151Z,7.68
2022-11-28T23:14:15.292Z,7.28
2022-11-28T23:16:45.961Z,7.43
2022-11-28T23:19:16.543Z,7.38
2022-11-28T23:21:46.568Z,8.40
2022-11-28T23:24:16.729Z,7.80
2022-11-28T23:26:46.316Z,8.27
2022-11-28T23:29:16.724Z,8.32
2022-11-28T23:31:46.942Z,7.38
2022-11-28T23:34:15.912Z,7.28
2022-11-28T23:36:46.085Z,8.32
2022-11-28T23:39:16.825Z,7.28
2022-11-28T23:41:46.028Z,7.90
2022-11-28T23:44:16.782Z,7.28
2022-11-28T23:46:45.664Z,7.57
2022-11-28T23:49:15.340Z,7.60
2022-11-28T23:51:43.759Z,6.93
2022-11-28T23:54:12.536Z,7.88
2022-11-28T23:56:42.498Z,7.93
2022-11-28T23:59:12.556Z,8.48
